Time;durP1;ratioP1;P1;durP2;ratioP2;P2;SDS_P1;SDS_P2;PMS_P1;PMS_P2;Temp;Humidity;BMP_temperature;BMP_pressure;BME280_temperature;BME280_humidity;BME280_pressure;Samples;Min_cycle;Max_cycle;Signal;HPM_P1;HPM_P2
2021/08/07 00:01:21;;;;;;;23.27;13.73;;;;;;;;;;5008549;28;20042;-57
2021/08/07 00:03:47;;;;;;;22.23;12.73;;;;;;;;;;5008176;28;20093;-56
2021/08/07 00:06:13;;;;;;;22.48;10.75;;;;;;;;;;5008482;28;20042;-57
2021/08/07 00:08:38;;;;;;;24.58;12.48;;;;;;;;;;5006879;28;20037;-57
2021/08/07 00:11:04;;;;;;;18.48;11.52;;;;;;;;;;5007247;28;20045;-57
2021/08/07 00:13:30;;;;;;;14.10;9.73;;;;;;;;;;5007976;28;20046;-57
2021/08/07 00:15:56;;;;;;;18.90;11.27;;;;;;;;;;5007709;28;20034;-57
2021/08/07 00:18:21;;;;;;;24.13;12.45;;;;;;;;;;4990496;28;20222;-57
2021/08/07 00:20:47;;;;;;;17.05;10.85;;;;;;;;;;5005940;28;20129;-56
2021/08/07 00:23:13;;;;;;;21.50;11.27;;;;;;;;;;5007487;28;20903;-56
2021/08/07 00:25:39;;;;;;;22.48;12.68;;;;;;;;;;5005766;28;20073;-56
2021/08/07 00:28:05;;;;;;;16.38;9.07;;;;;;;;;;5005867;28;20053;-57
2021/08/07 00:30:31;;;;;;;17.35;10.90;;;;;;;;;;5006813;28;20052;-57
2021/08/07 00:32:57;;;;;;;24.00;12.20;;;;;;;;;;4989648;28;20116;-57
2021/08/07 00:35:22;;;;;;;18.25;11.18;;;;;;;;;;5005280;28;20557;-57
2021/08/07 00:37:48;;;;;;;21.17;11.57;;;;;;;;;;5006176;28;20828;-56
2021/08/07 00:40:14;;;;;;;20.52;11.30;;;;;;;;;;5004614;28;20049;-56
2021/08/07 00:42:40;;;;;;;16.70;10.90;;;;;;;;;;5007669;28;20678;-55
2021/08/07 00:45:07;;;;;;;19.13;10.75;;;;;;;;;;5006845;28;20061;-56
2021/08/07 00:47:32;;;;;;;17.80;10.82;;;;;;;;;;5006387;28;20038;-57
2021/08/07 00:49:58;;;;;;;17.83;10.65;;;;;;;;;;5007946;28;20060;-56
2021/08/07 00:52:24;;;;;;;15.68;10.05;;;;;;;;;;5008111;28;20045;-54
2021/08/07 00:54:52;;;;;;;27.85;11.10;;;;;;;;;;5006854;28;20068;-56
2021/08/07 00:57:17;;;;;;;17.85;10.40;;;;;;;;;;5003553;28;20040;-57
2021/08/07 00:59:43;;;;;;;18.20;11.23;;;;;;;;;;5007498;28;20034;-56
2021/08/07 01:02:18;;;;;;;21.15;10.82;;;;;;;;;;5007115;28;20137;-56
2021/08/07 01:04:50;;;;;;;19.25;10.93;;;;;;;;;;5006700;28;20084;-57
2021/08/07 01:07:30;;;;;;;16.50;9.32;;;;;;;;;;5006345;28;20129;-57
2021/08/07 01:09:59;;;;;;;18.42;10.20;;;;;;;;;;5005512;28;20056;-57
2021/08/07 01:12:28;;;;;;;27.75;11.57;;;;;;;;;;5003898;28;20069;-54
2021/08/07 01:14:54;;;;;;;25.65;12.15;;;;;;;;;;5006182;28;20103;-54
2021/08/07 01:17:24;;;;;;;18.50;11.05;;;;;;;;;;4994904;28;20038;-56
2021/08/07 01:19:59;;;;;;;19.58;10.93;;;;;;;;;;5005459;28;20132;-56
2021/08/07 01:22:31;;;;;;;19.63;10.90;;;;;;;;;;5004779;28;20615;-56
2021/08/07 01:24:59;;;;;;;21.92;11.00;;;;;;;;;;5006116;28;20044;-56
2021/08/07 01:27:26;;;;;;;19.75;11.45;;;;;;;;;;4935756;28;2037877;-57
2021/08/07 01:29:53;;;;;;;20.55;10.65;;;;;;;;;;5004884;28;20057;-57
2021/08/07 01:32:23;;;;;;;16.77;9.82;;;;;;;;;;5005766;28;20034;-57
2021/08/07 01:34:49;;;;;;;17.67;10.35;;;;;;;;;;5002596;28;20037;-57
2021/08/07 01:37:14;;;;;;;17.38;9.90;;;;;;;;;;5004872;28;20045;-57
2021/08/07 01:39:45;;;;;;;19.05;10.55;;;;;;;;;;5004315;28;20379;-58
2021/08/07 01:42:11;;;;;;;16.65;10.00;;;;;;;;;;5003722;28;20119;-57
2021/08/07 01:44:37;;;;;;;18.15;10.82;;;;;;;;;;5003099;28;20496;-58
2021/08/07 01:47:07;;;;;;;18.33;9.95;;;;;;;;;;5007060;28;20042;-57
2021/08/07 01:49:44;;;;;;;17.35;9.57;;;;;;;;;;5000901;28;20049;-58
2021/08/07 01:52:14;;;;;;;20.13;10.93;;;;;;;;;;4986659;28;20037;-58
2021/08/07 01:54:42;;;;;;;15.82;10.55;;;;;;;;;;4977418;28;20053;-55
2021/08/07 01:57:12;;;;;;;20.63;10.60;;;;;;;;;;4975506;28;20044;-56
2021/08/07 01:59:38;;;;;;;19.15;9.88;;;;;;;;;;5014547;28;20046;-57
2021/08/07 02:02:07;;;;;;;16.63;10.10;;;;;;;;;;5003977;28;20042;-58
2021/08/07 02:04:34;;;;;;;17.67;10.27;;;;;;;;;;4947427;28;20391;-53
2021/08/07 02:07:00;;;;;;;19.10;10.60;;;;;;;;;;4964620;28;20074;-57
2021/08/07 02:09:26;;;;;;;18.30;10.13;;;;;;;;;;4964265;28;20081;-55
2021/08/07 02:11:53;;;;;;;15.60;9.82;;;;;;;;;;4965606;28;20034;-57
2021/08/07 02:14:19;;;;;;;16.02;9.85;;;;;;;;;;4966025;28;20062;-56
2021/08/07 02:16:45;;;;;;;20.60;9.90;;;;;;;;;;4967663;28;20042;-56
2021/08/07 02:19:15;;;;;;;17.63;9.35;;;;;;;;;;4952676;28;20057;-54
2021/08/07 02:21:43;;;;;;;14.25;9.25;;;;;;;;;;4966715;28;21066;-56
2021/08/07 02:24:09;;;;;;;15.93;9.63;;;;;;;;;;4968233;28;20038;-55
2021/08/07 02:26:35;;;;;;;15.10;8.95;;;;;;;;;;4967135;28;20454;-56
2021/08/07 02:29:01;;;;;;;17.55;8.82;;;;;;;;;;4966101;28;23149;-57
2021/08/07 02:31:27;;;;;;;16.50;9.23;;;;;;;;;;4966439;28;20053;-56
2021/08/07 02:33:54;;;;;;;23.13;9.07;;;;;;;;;;4967116;28;20047;-55
2021/08/07 02:36:21;;;;;;;21.38;9.25;;;;;;;;;;5000132;28;20088;-55
2021/08/07 02:38:47;;;;;;;16.73;7.95;;;;;;;;;;5006458;28;20116;-55
2021/08/07 02:41:13;;;;;;;14.32;7.60;;;;;;;;;;5007384;28;20030;-52
2021/08/07 02:43:39;;;;;;;15.30;7.15;;;;;;;;;;5007388;28;21661;-55
2021/08/07 02:46:05;;;;;;;20.38;7.35;;;;;;;;;;5008076;28;20076;-54
2021/08/07 02:48:31;;;;;;;8.55;5.50;;;;;;;;;;4992870;28;20372;-51
2021/08/07 02:50:58;;;;;;;13.20;6.50;;;;;;;;;;5008629;28;20103;-53
2021/08/07 02:53:24;;;;;;;9.25;5.60;;;;;;;;;;5006281;28;20042;-55
2021/08/07 02:55:50;;;;;;;12.48;6.32;;;;;;;;;;5006311;28;20045;-55
2021/08/07 02:58:16;;;;;;;10.23;5.82;;;;;;;;;;5007922;28;20069;-54
2021/08/07 03:00:42;;;;;;;11.32;5.93;;;;;;;;;;5007224;28;20149;-52
2021/08/07 03:03:08;;;;;;;9.45;5.40;;;;;;;;;;4992025;28;20133;-55
2021/08/07 03:05:34;;;;;;;12.15;5.65;;;;;;;;;;5007624;28;20048;-57
2021/08/07 03:08:00;;;;;;;14.25;6.18;;;;;;;;;;5009205;28;20045;-57
2021/08/07 03:10:26;;;;;;;9.45;5.97;;;;;;;;;;5008525;28;20147;-57
2021/08/07 03:12:56;;;;;;;9.63;5.85;;;;;;;;;;5007171;28;20061;-58
2021/08/07 03:15:23;;;;;;;12.02;5.82;;;;;;;;;;5003673;28;20037;-56
2021/08/07 03:17:50;;;;;;;13.88;5.72;;;;;;;;;;5004130;28;20037;-56
2021/08/07 03:20:16;;;;;;;8.50;5.25;;;;;;;;;;5004011;28;20041;-57
2021/08/07 03:22:42;;;;;;;10.57;5.32;;;;;;;;;;5000806;28;20614;-54
2021/08/07 03:25:09;;;;;;;11.32;5.90;;;;;;;;;;5001932;28;20056;-57
2021/08/07 03:27:35;;;;;;;9.35;4.72;;;;;;;;;;4999145;28;20046;-54
2021/08/07 03:30:01;;;;;;;10.10;5.57;;;;;;;;;;5002732;28;20054;-58
2021/08/07 03:32:27;;;;;;;9.65;5.60;;;;;;;;;;5001528;28;20041;-56
2021/08/07 03:34:52;;;;;;;13.05;5.85;;;;;;;;;;5006232;28;20190;-57
2021/08/07 03:37:18;;;;;;;11.38;5.18;;;;;;;;;;5006411;28;20156;-55
2021/08/07 03:39:44;;;;;;;13.10;5.57;;;;;;;;;;5004648;28;20037;-58
2021/08/07 03:42:10;;;;;;;11.52;5.07;;;;;;;;;;5004514;28;20029;-57
2021/08/07 03:44:36;;;;;;;11.25;5.85;;;;;;;;;;5000582;28;20608;-55
2021/08/07 03:47:01;;;;;;;9.00;5.00;;;;;;;;;;5004290;28;20068;-57
2021/08/07 03:49:27;;;;;;;9.45;4.93;;;;;;;;;;5004242;28;20077;-58
2021/08/07 03:51:53;;;;;;;10.30;5.10;;;;;;;;;;5000964;28;20057;-58
2021/08/07 03:54:19;;;;;;;9.25;4.72;;;;;;;;;;4990578;28;20061;-56
2021/08/07 03:56:45;;;;;;;10.40;4.85;;;;;;;;;;5006059;28;20050;-56
2021/08/07 03:59:10;;;;;;;12.95;5.28;;;;;;;;;;5005834;28;20626;-56
2021/08/07 04:01:36;;;;;;;12.70;4.97;;;;;;;;;;5003881;28;20057;-52
2021/08/07 04:04:02;;;;;;;9.73;5.35;;;;;;;;;;5003065;28;20041;-57
2021/08/07 04:06:28;;;;;;;12.50;5.10;;;;;;;;;;5005710;28;20060;-55
2021/08/07 04:08:54;;;;;;;15.27;5.43;;;;;;;;;;5003027;28;20123;-55
2021/08/07 04:11:19;;;;;;;8.65;5.13;;;;;;;;;;5005229;28;20052;-54
2021/08/07 04:13:45;;;;;;;7.32;4.32;;;;;;;;;;5005272;28;20038;-55
2021/08/07 04:16:11;;;;;;;14.27;4.80;;;;;;;;;;5007441;28;20037;-54
2021/08/07 04:18:37;;;;;;;10.48;4.85;;;;;;;;;;5004461;28;20502;-54
2021/08/07 04:21:03;;;;;;;12.27;5.07;;;;;;;;;;5005582;28;20037;-54
2021/08/07 04:23:28;;;;;;;9.30;4.55;;;;;;;;;;5003668;28;20454;-56
2021/08/07 04:25:54;;;;;;;8.05;4.30;;;;;;;;;;5004438;28;20037;-56
2021/08/07 04:28:20;;;;;;;10.45;4.70;;;;;;;;;;5004514;28;20056;-55
2021/08/07 04:30:46;;;;;;;10.20;4.70;;;;;;;;;;5000756;28;20399;-52
2021/08/07 04:33:12;;;;;;;10.10;4.85;;;;;;;;;;5005478;28;20435;-54
2021/08/07 04:35:38;;;;;;;9.18;4.68;;;;;;;;;;5004847;28;20176;-56
2021/08/07 04:38:04;;;;;;;7.60;4.35;;;;;;;;;;5005075;28;20037;-55
2021/08/07 04:40:30;;;;;;;10.60;4.38;;;;;;;;;;5005011;28;20484;-55
2021/08/07 04:42:56;;;;;;;11.35;4.45;;;;;;;;;;5004573;28;20053;-54
2021/08/07 04:45:21;;;;;;;8.13;4.18;;;;;;;;;;5004122;28;20907;-55
2021/08/07 04:47:55;;;;;;;8.90;4.43;;;;;;;;;;5005014;28;20108;-55
2021/08/07 04:50:21;;;;;;;11.98;4.47;;;;;;;;;;5005143;28;20069;-55
2021/08/07 04:52:46;;;;;;;9.65;4.72;;;;;;;;;;5004890;28;20080;-55
2021/08/07 04:55:12;;;;;;;7.82;4.25;;;;;;;;;;5006442;28;20045;-52
2021/08/07 04:57:38;;;;;;;12.63;4.07;;;;;;;;;;5004133;28;20041;-54
2021/08/07 05:00:04;;;;;;;12.05;4.18;;;;;;;;;;5004645;28;20053;-57
2021/08/07 05:02:30;;;;;;;8.30;4.10;;;;;;;;;;5003790;28;20129;-56
2021/08/07 05:04:56;;;;;;;8.43;4.30;;;;;;;;;;5005465;28;20043;-55
2021/08/07 05:07:22;;;;;;;7.72;4.00;;;;;;;;;;5003418;28;20050;-53
2021/08/07 05:09:47;;;;;;;7.70;4.43;;;;;;;;;;5005642;28;20087;-54
2021/08/07 05:12:13;;;;;;;8.07;4.20;;;;;;;;;;4991820;28;20040;-55
2021/08/07 05:14:39;;;;;;;7.10;3.90;;;;;;;;;;4989511;28;20045;-56
2021/08/07 05:17:05;;;;;;;9.98;3.70;;;;;;;;;;5005348;28;20564;-55
2021/08/07 05:19:30;;;;;;;7.68;3.78;;;;;;;;;;5003299;28;20147;-55
2021/08/07 05:21:56;;;;;;;6.90;3.53;;;;;;;;;;5003473;28;20065;-53
2021/08/07 05:24:22;;;;;;;8.05;3.78;;;;;;;;;;5002202;28;20409;-53
2021/08/07 05:26:48;;;;;;;8.85;3.38;;;;;;;;;;5004290;28;20049;-56
2021/08/07 05:29:14;;;;;;;7.68;3.95;;;;;;;;;;5002855;28;20056;-55
2021/08/07 05:31:39;;;;;;;6.78;3.75;;;;;;;;;;5003555;28;20057;-55
2021/08/07 05:34:05;;;;;;;7.05;3.85;;;;;;;;;;5003993;28;20651;-54
2021/08/07 05:36:31;;;;;;;6.00;3.50;;;;;;;;;;5003073;28;20087;-54
2021/08/07 05:38:57;;;;;;;10.32;4.35;;;;;;;;;;5003343;28;20991;-54
2021/08/07 05:41:22;;;;;;;7.25;3.70;;;;;;;;;;5002703;28;20033;-55
2021/08/07 05:43:48;;;;;;;7.13;3.45;;;;;;;;;;5004355;28;20040;-56
2021/08/07 05:46:14;;;;;;;9.77;4.13;;;;;;;;;;5004360;28;20068;-52
2021/08/07 05:48:40;;;;;;;9.88;3.70;;;;;;;;;;5003620;28;21039;-55
2021/08/07 05:51:06;;;;;;;8.68;3.70;;;;;;;;;;5004272;28;20061;-55
2021/08/07 05:53:32;;;;;;;7.60;4.03;;;;;;;;;;5004536;28;20034;-55
2021/08/07 05:55:58;;;;;;;8.02;3.85;;;;;;;;;;5005212;28;20046;-55
2021/08/07 05:58:23;;;;;;;10.07;4.07;;;;;;;;;;5002995;28;20578;-53
2021/08/07 06:00:49;;;;;;;9.57;3.83;;;;;;;;;;5003085;28;20300;-53
2021/08/07 06:03:15;;;;;;;7.72;3.33;;;;;;;;;;5005125;28;20044;-55
2021/08/07 06:05:41;;;;;;;7.78;3.38;;;;;;;;;;5004148;28;20046;-54
2021/08/07 06:08:07;;;;;;;9.85;3.80;;;;;;;;;;5004608;28;20048;-52
2021/08/07 06:10:32;;;;;;;7.70;3.72;;;;;;;;;;5002440;28;20572;-54
2021/08/07 06:12:58;;;;;;;6.65;3.75;;;;;;;;;;5003482;28;20525;-55
2021/08/07 06:15:24;;;;;;;7.05;3.70;;;;;;;;;;5004361;28;20054;-55
2021/08/07 06:17:50;;;;;;;8.20;3.65;;;;;;;;;;5003884;28;20521;-56
2021/08/07 06:20:16;;;;;;;10.18;3.95;;;;;;;;;;4989993;28;20201;-56
2021/08/07 06:22:42;;;;;;;10.90;3.80;;;;;;;;;;5004739;28;20033;-55
2021/08/07 06:25:08;;;;;;;10.00;4.18;;;;;;;;;;5002612;28;20061;-54
2021/08/07 06:27:34;;;;;;;8.68;3.53;;;;;;;;;;4983088;28;20037;-55
2021/08/07 06:30:00;;;;;;;6.47;3.38;;;;;;;;;;5002142;28;20499;-55
2021/08/07 06:32:26;;;;;;;6.22;3.38;;;;;;;;;;5003988;28;20084;-55
2021/08/07 06:34:52;;;;;;;8.88;3.58;;;;;;;;;;5006420;28;20774;-55
2021/08/07 06:37:18;;;;;;;10.05;3.65;;;;;;;;;;5006713;28;20033;-56
2021/08/07 06:39:44;;;;;;;10.18;3.63;;;;;;;;;;5008403;28;20616;-56
2021/08/07 06:42:10;;;;;;;8.57;3.45;;;;;;;;;;5008709;28;20049;-55
2021/08/07 06:44:36;;;;;;;6.75;3.33;;;;;;;;;;5007112;28;20579;-56
2021/08/07 06:47:02;;;;;;;7.80;3.28;;;;;;;;;;5007037;28;20041;-56
2021/08/07 06:49:28;;;;;;;9.80;3.20;;;;;;;;;;5006430;28;20120;-53
2021/08/07 06:51:53;;;;;;;6.38;3.35;;;;;;;;;;5006514;28;20053;-56
2021/08/07 06:54:19;;;;;;;7.30;3.15;;;;;;;;;;5007351;28;20057;-54
2021/08/07 06:56:48;;;;;;;9.95;3.35;;;;;;;;;;5007144;28;20046;-55
2021/08/07 06:59:17;;;;;;;6.35;3.20;;;;;;;;;;5008809;28;20048;-56
2021/08/07 07:01:44;;;;;;;5.53;2.97;;;;;;;;;;5007269;28;20128;-55
2021/08/07 07:04:10;;;;;;;7.45;3.42;;;;;;;;;;5008835;28;20073;-55
2021/08/07 07:06:36;;;;;;;6.15;3.10;;;;;;;;;;5007702;28;20041;-56
2021/08/07 07:09:02;;;;;;;6.80;2.95;;;;;;;;;;5005546;28;20068;-55
2021/08/07 07:11:28;;;;;;;6.95;3.35;;;;;;;;;;5006986;28;20096;-55
2021/08/07 07:13:53;;;;;;;6.00;2.90;;;;;;;;;;5007108;28;20065;-52
2021/08/07 07:16:19;;;;;;;8.20;2.97;;;;;;;;;;5005905;28;20053;-55
2021/08/07 07:18:45;;;;;;;8.05;3.30;;;;;;;;;;5007203;28;20487;-54
2021/08/07 07:21:11;;;;;;;5.80;2.90;;;;;;;;;;5008796;28;20038;-55
2021/08/07 07:23:36;;;;;;;5.85;2.95;;;;;;;;;;5005887;28;20161;-62
2021/08/07 07:26:02;;;;;;;5.53;3.00;;;;;;;;;;5007624;28;20069;-53
2021/08/07 07:28:28;;;;;;;16.08;3.28;;;;;;;;;;5007930;28;20053;-55
2021/08/07 07:30:54;;;;;;;5.47;2.85;;;;;;;;;;5007849;28;20049;-55
2021/08/07 07:33:20;;;;;;;6.60;3.22;;;;;;;;;;5007166;28;20770;-55
2021/08/07 07:35:45;;;;;;;8.38;3.30;;;;;;;;;;5008312;28;20029;-55
2021/08/07 07:38:11;;;;;;;9.93;2.47;;;;;;;;;;5009060;28;20458;-55
2021/08/07 07:40:37;;;;;;;6.18;2.90;;;;;;;;;;5008896;28;20053;-56
2021/08/07 07:43:03;;;;;;;5.28;2.60;;;;;;;;;;5007429;28;20172;-52
2021/08/07 07:45:29;;;;;;;7.85;2.67;;;;;;;;;;5007162;28;20171;-54
2021/08/07 07:47:55;;;;;;;6.13;2.80;;;;;;;;;;5007639;28;20060;-56
2021/08/07 07:50:21;;;;;;;7.22;2.60;;;;;;;;;;5006821;28;20503;-53
2021/08/07 07:52:48;;;;;;;4.70;2.28;;;;;;;;;;5005902;28;20038;-55
2021/08/07 07:55:14;;;;;;;8.00;2.88;;;;;;;;;;5007368;28;20049;-56
2021/08/07 07:57:39;;;;;;;6.60;3.00;;;;;;;;;;5007047;28;20498;-54
2021/08/07 08:00:06;;;;;;;8.27;3.35;;;;;;;;;;5007801;28;20672;-54
2021/08/07 08:02:31;;;;;;;6.30;3.20;;;;;;;;;;5007504;28;20115;-56
2021/08/07 08:04:57;;;;;;;7.93;3.30;;;;;;;;;;5009077;28;20041;-55
2021/08/07 08:07:23;;;;;;;7.18;3.17;;;;;;;;;;5004386;28;20038;-55
2021/08/07 08:09:49;;;;;;;6.47;3.08;;;;;;;;;;5008304;28;20137;-53
2021/08/07 08:12:14;;;;;;;8.27;3.22;;;;;;;;;;5009310;28;20065;-56
2021/08/07 08:14:40;;;;;;;6.10;2.95;;;;;;;;;;5006639;28;20380;-56
2021/08/07 08:17:06;;;;;;;11.15;3.40;;;;;;;;;;5009499;28;20052;-54
2021/08/07 08:19:32;;;;;;;10.52;3.15;;;;;;;;;;5008038;28;20120;-54
2021/08/07 08:21:58;;;;;;;7.20;2.95;;;;;;;;;;5007645;28;20037;-55
2021/08/07 08:24:24;;;;;;;7.60;3.03;;;;;;;;;;5006980;28;20041;-54
2021/08/07 08:26:49;;;;;;;7.07;3.15;;;;;;;;;;5007415;28;20060;-55
2021/08/07 08:29:15;;;;;;;5.88;2.78;;;;;;;;;;5005674;28;20061;-52
2021/08/07 08:31:41;;;;;;;8.82;3.08;;;;;;;;;;5007404;28;20064;-55
2021/08/07 08:34:07;;;;;;;5.85;3.08;;;;;;;;;;5006652;28;20038;-54
2021/08/07 08:36:32;;;;;;;7.47;3.10;;;;;;;;;;5006520;28;20120;-55
2021/08/07 08:38:58;;;;;;;5.18;2.60;;;;;;;;;;5009619;28;20120;-55
2021/08/07 08:41:24;;;;;;;7.28;3.33;;;;;;;;;;5005879;28;20041;-56
2021/08/07 08:43:53;;;;;;;6.60;3.08;;;;;;;;;;5006436;28;20627;-55
2021/08/07 08:46:20;;;;;;;8.02;3.30;;;;;;;;;;5007317;28;20505;-55
2021/08/07 08:48:46;;;;;;;6.00;2.97;;;;;;;;;;5006035;28;20609;-54
2021/08/07 08:51:12;;;;;;;5.53;2.60;;;;;;;;;;5006677;28;20054;-54
2021/08/07 08:53:41;;;;;;;6.88;2.90;;;;;;;;;;5007337;28;20041;-52
2021/08/07 08:56:08;;;;;;;7.38;3.05;;;;;;;;;;5006741;28;20044;-56
2021/08/07 08:58:35;;;;;;;7.30;2.95;;;;;;;;;;4993746;28;20083;-54
2021/08/07 09:01:07;;;;;;;6.90;3.35;;;;;;;;;;5006538;28;20038;-51
2021/08/07 09:03:33;;;;;;;6.35;2.75;;;;;;;;;;5006631;28;20041;-51
2021/08/07 09:05:59;;;;;;;7.45;3.35;;;;;;;;;;5005267;28;20049;-54
2021/08/07 09:08:25;;;;;;;7.13;3.15;;;;;;;;;;5006312;28;20076;-55
2021/08/07 09:11:09;;;;;;;6.32;3.05;;;;;;;;;;5006469;28;20085;-54
2021/08/07 09:13:34;;;;;;;6.03;2.80;;;;;;;;;;5005337;28;20100;-52
2021/08/07 09:16:06;;;;;;;6.57;3.03;;;;;;;;;;5006736;28;20041;-54
2021/08/07 09:18:32;;;;;;;6.18;3.20;;;;;;;;;;5005943;28;20509;-54
2021/08/07 09:21:08;;;;;;;5.85;3.08;;;;;;;;;;5006167;28;20045;-52
2021/08/07 09:23:34;;;;;;;6.28;2.95;;;;;;;;;;5005399;28;22073;-54
2021/08/07 09:26:17;;;;;;;7.32;3.58;;;;;;;;;;5005478;28;20049;-53
2021/08/07 09:28:44;;;;;;;8.38;3.20;;;;;;;;;;5005287;28;20171;-54
2021/08/07 09:31:10;;;;;;;7.53;3.10;;;;;;;;;;5005194;28;20045;-55
2021/08/07 09:33:37;;;;;;;5.93;2.42;;;;;;;;;;5007082;28;20041;-55
2021/08/07 09:36:02;;;;;;;7.38;3.05;;;;;;;;;;5007777;28;20037;-55
2021/08/07 09:38:31;;;;;;;7.47;3.33;;;;;;;;;;5006364;28;20030;-53
2021/08/07 09:41:01;;;;;;;7.30;3.17;;;;;;;;;;5006689;28;20033;-55
2021/08/07 09:43:32;;;;;;;5.47;2.83;;;;;;;;;;5005291;28;20053;-53
2021/08/07 09:46:08;;;;;;;7.90;3.30;;;;;;;;;;4989655;28;20109;-54
2021/08/07 09:48:33;;;;;;;6.47;3.15;;;;;;;;;;4989574;28;20030;-54
2021/08/07 09:51:00;;;;;;;20.25;3.40;;;;;;;;;;5006852;28;20057;-54
2021/08/07 09:53:29;;;;;;;6.07;2.90;;;;;;;;;;5005524;28;20042;-55
2021/08/07 09:56:00;;;;;;;6.32;3.03;;;;;;;;;;5006227;28;20042;-54
2021/08/07 09:58:25;;;;;;;7.90;3.20;;;;;;;;;;5004636;28;20033;-53
2021/08/07 10:00:51;;;;;;;7.38;2.92;;;;;;;;;;4995077;28;20053;-55
2021/08/07 10:03:18;;;;;;;7.50;3.17;;;;;;;;;;5004647;28;20033;-55
2021/08/07 10:05:44;;;;;;;7.35;3.15;;;;;;;;;;5005707;28;20120;-55
2021/08/07 10:08:11;;;;;;;6.07;2.95;;;;;;;;;;5008211;28;20418;-54
2021/08/07 10:10:37;;;;;;;8.45;3.30;;;;;;;;;;5008240;28;20453;-53
2021/08/07 10:13:03;;;;;;;7.47;3.33;;;;;;;;;;5010346;28;20045;-53
2021/08/07 10:15:30;;;;;;;7.25;2.92;;;;;;;;;;5009691;28;20038;-54
2021/08/07 10:17:56;;;;;;;7.80;2.97;;;;;;;;;;5010472;28;20065;-52
2021/08/07 10:20:22;;;;;;;10.07;3.10;;;;;;;;;;5010423;28;20121;-52
2021/08/07 10:22:49;;;;;;;5.95;3.17;;;;;;;;;;5009732;28;20797;-55
2021/08/07 10:25:15;;;;;;;6.45;3.15;;;;;;;;;;5008667;28;20048;-53
2021/08/07 10:27:42;;;;;;;6.18;3.00;;;;;;;;;;4999172;28;20057;-55
2021/08/07 10:30:11;;;;;;;5.90;3.10;;;;;;;;;;5009152;28;20821;-54
2021/08/07 10:32:42;;;;;;;7.93;3.15;;;;;;;;;;5009742;28;20045;-54
2021/08/07 10:35:09;;;;;;;6.97;2.85;;;;;;;;;;5010382;28;20084;-52
2021/08/07 10:37:35;;;;;;;6.72;3.25;;;;;;;;;;5009461;28;20087;-53
2021/08/07 10:40:01;;;;;;;8.98;2.97;;;;;;;;;;5012861;28;20045;-55
2021/08/07 10:42:28;;;;;;;8.95;3.30;;;;;;;;;;5011775;28;20393;-55
2021/08/07 10:44:55;;;;;;;8.35;2.78;;;;;;;;;;5009991;28;20033;-54
2021/08/07 10:47:42;;;;;;;7.43;3.13;;;;;;;;;;5010034;28;20132;-52
2021/08/07 10:50:31;;;;;;;5.53;2.78;;;;;;;;;;5010672;28;20510;-54
2021/08/07 10:53:00;;;;;;;8.43;3.10;;;;;;;;;;4999308;28;20049;-54
2021/08/07 10:55:44;;;;;;;7.10;3.40;;;;;;;;;;5010188;28;20037;-55
2021/08/07 10:58:29;;;;;;;5.78;3.30;;;;;;;;;;5010615;28;20037;-53
2021/08/07 11:00:54;;;;;;;7.45;3.33;;;;;;;;;;5011723;28;20037;-56
2021/08/07 11:03:20;;;;;;;7.95;3.50;;;;;;;;;;5012347;28;20049;-52
2021/08/07 11:05:55;;;;;;;8.65;3.10;;;;;;;;;;5014373;28;20124;-54
2021/08/07 11:08:20;;;;;;;5.78;3.03;;;;;;;;;;5010288;28;20040;-51
2021/08/07 11:10:46;;;;;;;5.53;2.92;;;;;;;;;;5011649;28;20058;-53
2021/08/07 11:13:27;;;;;;;6.80;2.70;;;;;;;;;;5013093;28;20048;-55
2021/08/07 11:16:11;;;;;;;5.70;2.88;;;;;;;;;;5011883;28;20041;-55
2021/08/07 11:18:37;;;;;;;9.77;3.28;;;;;;;;;;4991757;28;20171;-55
2021/08/07 11:21:02;;;;;;;6.60;2.97;;;;;;;;;;5012086;28;20538;-54
2021/08/07 11:23:35;;;;;;;6.63;2.90;;;;;;;;;;5012106;28;20064;-53
2021/08/07 11:26:03;;;;;;;5.85;2.90;;;;;;;;;;5008272;28;20041;-54
2021/08/07 11:28:30;;;;;;;11.43;3.13;;;;;;;;;;5008584;28;20046;-55
2021/08/07 11:31:15;;;;;;;6.38;2.47;;;;;;;;;;5009884;28;20041;-55
2021/08/07 11:33:41;;;;;;;7.15;3.40;;;;;;;;;;5007894;28;20057;-55
2021/08/07 11:36:08;;;;;;;7.68;3.20;;;;;;;;;;5011220;28;20034;-54
2021/08/07 11:38:34;;;;;;;10.40;3.63;;;;;;;;;;5009758;28;20403;-52
2021/08/07 11:41:00;;;;;;;8.15;2.90;;;;;;;;;;4993324;28;20604;-56
2021/08/07 11:43:45;;;;;;;10.77;3.33;;;;;;;;;;5006917;28;20124;-54
2021/08/07 11:46:12;;;;;;;8.23;3.13;;;;;;;;;;5007836;28;20042;-55
2021/08/07 11:48:39;;;;;;;9.50;3.13;;;;;;;;;;5007051;28;20384;-55
2021/08/07 11:51:09;;;;;;;8.10;3.35;;;;;;;;;;5009173;28;20919;-55
2021/08/07 11:53:37;;;;;;;9.75;3.28;;;;;;;;;;5009297;28;20038;-53
2021/08/07 11:56:04;;;;;;;5.90;3.10;;;;;;;;;;5009570;28;20418;-54
2021/08/07 11:58:31;;;;;;;7.95;3.20;;;;;;;;;;5007172;28;20111;-55
2021/08/07 12:00:58;;;;;;;11.88;3.75;;;;;;;;;;5008606;28;20100;-55
2021/08/07 12:03:24;;;;;;;8.93;3.10;;;;;;;;;;5007139;28;20087;-54
2021/08/07 12:05:56;;;;;;;8.05;3.20;;;;;;;;;;5008340;28;20047;-55
2021/08/07 12:08:23;;;;;;;7.55;3.15;;;;;;;;;;5008232;28;20142;-54
2021/08/07 12:10:50;;;;;;;8.02;3.10;;;;;;;;;;5008768;28;20057;-55
2021/08/07 12:13:20;;;;;;;5.85;2.75;;;;;;;;;;5010597;28;20042;-54
2021/08/07 12:16:04;;;;;;;6.85;3.33;;;;;;;;;;5007762;28;20037;-55
2021/08/07 12:18:59;;;;;;;8.65;2.90;;;;;;;;;;5007741;28;20044;-54
2021/08/07 12:21:32;;;;;;;5.65;3.10;;;;;;;;;;4993150;28;20087;-55
2021/08/07 12:24:00;;;;;;;6.15;3.17;;;;;;;;;;5007705;28;22672;-56
2021/08/07 12:26:27;;;;;;;8.10;2.97;;;;;;;;;;5008057;28;20062;-55
2021/08/07 12:29:00;;;;;;;8.55;3.33;;;;;;;;;;5007057;28;20087;-55
2021/08/07 12:31:46;;;;;;;7.28;3.50;;;;;;;;;;5007153;28;20789;-55
2021/08/07 12:34:16;;;;;;;8.70;3.58;;;;;;;;;;5007331;28;20053;-55
2021/08/07 12:36:42;;;;;;;8.50;3.58;;;;;;;;;;5007300;28;20050;-54
2021/08/07 12:39:08;;;;;;;9.20;3.47;;;;;;;;;;5007335;28;20044;-54
2021/08/07 12:41:34;;;;;;;10.15;3.25;;;;;;;;;;5007811;28;20041;-55
2021/08/07 12:44:00;;;;;;;7.55;3.78;;;;;;;;;;5007661;28;20038;-54
2021/08/07 12:46:26;;;;;;;8.40;3.63;;;;;;;;;;5008368;28;20091;-55
2021/08/07 12:48:52;;;;;;;7.85;3.58;;;;;;;;;;5006409;28;20041;-55
2021/08/07 12:51:22;;;;;;;7.38;3.30;;;;;;;;;;5006688;28;20109;-54
2021/08/07 12:53:48;;;;;;;7.57;3.40;;;;;;;;;;5008533;28;20891;-55
2021/08/07 12:56:15;;;;;;;8.65;3.92;;;;;;;;;;5007231;28;20033;-52
2021/08/07 12:59:00;;;;;;;7.90;3.55;;;;;;;;;;5004993;28;20089;-53
2021/08/07 13:01:27;;;;;;;9.98;4.15;;;;;;;;;;5005511;28;20099;-55
2021/08/07 13:03:58;;;;;;;6.80;4.00;;;;;;;;;;5007272;28;20633;-55
2021/08/07 13:06:24;;;;;;;9.57;3.63;;;;;;;;;;5005715;28;20038;-52
2021/08/07 13:08:50;;;;;;;8.82;3.38;;;;;;;;;;5008131;28;20037;-54
2021/08/07 13:11:17;;;;;;;9.60;3.38;;;;;;;;;;5006555;28;20054;-55
2021/08/07 13:13:47;;;;;;;10.57;3.70;;;;;;;;;;5006899;28;22045;-53
2021/08/07 13:16:13;;;;;;;7.63;3.63;;;;;;;;;;5007624;28;20184;-54
2021/08/07 13:18:39;;;;;;;13.50;3.92;;;;;;;;;;4990959;28;20041;-52
2021/08/07 13:21:23;;;;;;;9.45;3.40;;;;;;;;;;5006301;28;20128;-52
2021/08/07 13:23:49;;;;;;;9.48;3.70;;;;;;;;;;5006599;28;20038;-54
2021/08/07 13:26:15;;;;;;;14.27;3.75;;;;;;;;;;5008012;28;20110;-54
2021/08/07 13:28:41;;;;;;;7.35;3.78;;;;;;;;;;5006439;28;20053;-54
2021/08/07 13:31:06;;;;;;;8.90;3.75;;;;;;;;;;5007570;28;20876;-55
2021/08/07 13:33:34;;;;;;;7.57;3.40;;;;;;;;;;5008137;28;21912;-53
2021/08/07 13:36:00;;;;;;;10.40;3.90;;;;;;;;;;5007131;28;22127;-55
2021/08/07 13:38:27;;;;;;;16.17;3.45;;;;;;;;;;5007104;28;20040;-54
2021/08/07 13:41:03;;;;;;;7.57;3.45;;;;;;;;;;5007346;28;20038;-55
2021/08/07 13:43:28;;;;;;;6.63;3.42;;;;;;;;;;5010157;28;20034;-55
2021/08/07 13:45:55;;;;;;;9.60;3.75;;;;;;;;;;5012257;28;20045;-52
2021/08/07 13:48:21;;;;;;;8.25;3.95;;;;;;;;;;5010631;28;20085;-54
2021/08/07 13:50:47;;;;;;;6.82;3.25;;;;;;;;;;5010221;28;20141;-56
2021/08/07 13:53:13;;;;;;;7.70;3.55;;;;;;;;;;5010112;28;20029;-53
2021/08/07 13:55:38;;;;;;;7.93;3.60;;;;;;;;;;5008966;28;20044;-54
2021/08/07 13:58:04;;;;;;;9.10;4.38;;;;;;;;;;5010351;28;20049;-55
2021/08/07 14:00:30;;;;;;;9.60;3.75;;;;;;;;;;5010869;28;20068;-55
2021/08/07 14:02:56;;;;;;;10.02;3.75;;;;;;;;;;5012151;28;20033;-55
2021/08/07 14:05:22;;;;;;;7.18;3.47;;;;;;;;;;5009967;28;20145;-53
2021/08/07 14:07:48;;;;;;;8.30;4.18;;;;;;;;;;5011893;28;20056;-55
2021/08/07 14:10:14;;;;;;;8.95;3.83;;;;;;;;;;5011379;28;20514;-55
2021/08/07 14:12:40;;;;;;;8.52;3.60;;;;;;;;;;5010837;28;20048;-55
2021/08/07 14:15:06;;;;;;;8.40;3.75;;;;;;;;;;5009941;28;20044;-57
2021/08/07 14:17:32;;;;;;;6.68;3.55;;;;;;;;;;5008969;28;20060;-57
2021/08/07 14:19:57;;;;;;;8.05;4.07;;;;;;;;;;5010333;28;20499;-57
2021/08/07 14:22:24;;;;;;;6.68;3.45;;;;;;;;;;5011489;28;20037;-57
2021/08/07 14:24:50;;;;;;;8.52;3.97;;;;;;;;;;5011443;28;20038;-56
2021/08/07 14:27:16;;;;;;;12.90;3.53;;;;;;;;;;5012526;28;20101;-57
2021/08/07 14:29:41;;;;;;;8.35;4.35;;;;;;;;;;5011067;28;20662;-57
2021/08/07 14:32:07;;;;;;;11.07;4.38;;;;;;;;;;5010650;28;20085;-56
2021/08/07 14:34:33;;;;;;;9.13;4.22;;;;;;;;;;4993263;28;20061;-57
2021/08/07 14:36:59;;;;;;;8.05;3.97;;;;;;;;;;5009777;28;20045;-57